Time;durP1;ratioP1;P1;durP2;ratioP2;P2;SDS_P1;SDS_P2;PMS_P1;PMS_P2;Temp;Humidity;BMP_temperature;BMP_pressure;BME280_temperature;BME280_humidity;BME280_pressure;Samples;Min_cycle;Max_cycle;Signal;HPM_P1;HPM_P2
2022/08/21 00:01:47;;;;;;;;;3.75;3.50;;;;;22.59;45.05;101011.66;5072907;28;46694;-81
2022/08/21 00:04:13;;;;;;;;;2.50;2.25;;;;;22.60;44.56;101016.84;5073536;28;46008;-81
2022/08/21 00:06:38;;;;;;;;;3.25;3.00;;;;;22.58;44.96;101018.84;5071659;28;45948;-81
2022/08/21 00:09:06;;;;;;;;;4.75;4.50;;;;;22.56;44.69;101018.19;5070940;28;47675;-81
2022/08/21 00:11:34;;;;;;;;;4.75;4.00;;;;;22.55;44.54;101013.88;5067106;28;46200;-80
2022/08/21 00:14:00;;;;;;;;;5.00;4.25;;;;;22.51;45.04;101012.53;5073120;28;45853;-80
2022/08/21 00:16:26;;;;;;;;;4.50;3.75;;;;;22.53;44.82;101015.03;5071982;28;46079;-80
2022/08/21 00:18:51;;;;;;;;;5.00;5.00;;;;;22.50;44.92;101010.91;5055200;28;45669;-80
2022/08/21 00:21:16;;;;;;;;;7.00;6.25;;;;;22.49;44.80;101005.72;5072650;28;46817;-80
2022/08/21 00:23:42;;;;;;;;;2.00;2.00;;;;;22.48;45.16;100998.72;5072875;28;45680;-80
2022/08/21 00:26:08;;;;;;;;;4.50;4.25;;;;;22.49;45.45;101006.56;5071410;28;46027;-80
2022/08/21 00:28:33;;;;;;;;;7.00;5.25;;;;;22.48;45.57;101002.22;5073210;28;46134;-79
2022/08/21 00:30:59;;;;;;;;;4.50;3.75;;;;;22.46;45.55;100998.88;5054465;28;47032;-80
2022/08/21 00:33:26;;;;;;;;;4.00;2.75;;;;;22.47;45.57;100997.06;5071731;28;45860;-78
2022/08/21 00:35:51;;;;;;;;;5.25;4.00;;;;;22.46;45.46;100992.72;5059095;28;45751;-80
2022/08/21 00:38:17;;;;;;;;;4.00;3.00;;;;;22.45;45.35;100991.06;5072635;28;46379;-80
2022/08/21 00:40:47;;;;;;;;;6.00;4.25;;;;;22.44;45.59;100992.91;5054806;28;47213;-80
2022/08/21 00:43:16;;;;;;;;;5.75;5.00;;;;;22.44;45.36;100992.06;5069249;28;45814;-75
2022/08/21 00:45:41;;;;;;;;;4.25;4.00;;;;;22.42;45.35;100997.59;5067930;28;45823;-80
2022/08/21 00:48:07;;;;;;;;;5.00;3.00;;;;;22.42;45.49;101000.25;5071457;28;46354;-80
2022/08/21 00:50:37;;;;;;;;;4.00;4.00;;;;;22.41;45.84;101008.44;5054258;28;47172;-80
2022/08/21 00:53:06;;;;;;;;;3.50;3.00;;;;;22.39;46.27;101000.63;5071343;28;45674;-81
2022/08/21 00:55:33;;;;;;;;;3.25;2.00;;;;;22.33;45.99;100987.97;5072330;28;45770;-79
2022/08/21 00:58:00;;;;;;;;;1.00;1.00;;;;;22.30;45.87;100982.97;5072444;28;46295;-81
2022/08/21 01:00:33;;;;;;;;;2.25;2.25;;;;;22.30;46.08;100992.81;5069593;28;45988;-79
2022/08/21 01:03:00;;;;;;;;;3.50;2.25;;;;;22.29;46.09;100994.69;5072855;28;45759;-78
2022/08/21 01:05:28;;;;;;;;;2.25;2.25;;;;;22.27;46.44;100986.00;5073359;28;45969;-80
2022/08/21 01:07:56;;;;;;;;;2.00;2.00;;;;;22.25;46.39;100993.34;5073108;28;46622;-78
2022/08/21 01:10:22;;;;;;;;;3.25;3.00;;;;;22.24;45.93;100989.00;5072325;28;46015;-79
2022/08/21 01:12:50;;;;;;;;;2.00;2.00;;;;;22.22;46.18;100995.53;5088669;27;45562;-78
2022/08/21 01:15:18;;;;;;;;;1.75;1.50;;;;;22.23;46.17;100998.03;5050773;28;45973;-80
2022/08/21 01:17:43;;;;;;;;;2.00;2.00;;;;;22.22;46.47;100993.69;5051016;28;46436;-78
2022/08/21 01:20:10;;;;;;;;;3.50;2.00;;;;;22.19;46.58;100986.03;5050248;28;46307;-80
2022/08/21 01:22:36;;;;;;;;;2.00;2.00;;;;;22.20;46.56;100990.38;5052248;28;45816;-78
2022/08/21 01:25:05;;;;;;;;;2.00;2.00;;;;;22.19;46.38;100999.38;5051708;28;45709;-80
2022/08/21 01:27:30;;;;;;;;;3.50;3.00;;;;;22.17;46.29;100988.91;5051683;28;46603;-80
2022/08/21 01:30:14;;;;;;;;;3.00;3.00;;;;;22.17;46.51;100998.75;5051188;28;46318;-80
2022/08/21 01:32:40;;;;;;;;;2.00;2.00;;;;;22.16;46.80;100997.91;5052081;28;45921;-80
2022/08/21 01:35:07;;;;;;;;;2.50;2.00;;;;;22.15;46.97;101009.59;5042275;28;46035;-79
2022/08/21 01:37:32;;;;;;;;;4.00;3.00;;;;;22.14;46.84;100999.06;5061431;28;47905;-81
2022/08/21 01:39:58;;;;;;;;;4.75;3.00;;;;;22.14;46.59;101009.75;5050035;28;47403;-80
2022/08/21 01:42:24;;;;;;;;;3.00;3.00;;;;;22.11;46.49;101002.09;5051411;28;45940;-82
2022/08/21 01:44:49;;;;;;;;;5.00;2.00;;;;;22.13;46.92;101016.13;5052394;28;45665;-76
2022/08/21 01:47:15;;;;;;;;;4.75;3.75;;;;;22.11;46.64;101004.78;5054803;28;46323;-77
2022/08/21 01:49:42;;;;;;;;;3.33;2.00;;;;;22.10;46.88;101000.44;5051862;28;45632;-80
2022/08/21 01:52:08;;;;;;;;;2.00;2.00;;;;;22.10;46.63;101000.44;5043298;28;45690;-78
2022/08/21 01:54:33;;;;;;;;;2.00;2.00;;;;;22.11;46.84;101004.78;5051872;28;45736;-80
2022/08/21 01:57:00;;;;;;;;;3.00;3.00;;;;;22.10;47.42;101008.44;5051217;28;45894;-79
2022/08/21 01:59:26;;;;;;;;;2.25;2.00;;;;;22.07;46.89;100998.97;5032768;28;48072;-81
2022/08/21 02:01:53;;;;;;;;;3.00;2.00;;;;;22.03;47.31;100994.13;5050885;28;45807;-80
2022/08/21 02:04:19;;;;;;;;;3.50;3.00;;;;;22.05;46.81;100997.44;5050415;28;45792;-79
2022/08/21 02:06:46;;;;;;;;;3.75;3.00;;;;;22.03;47.17;100994.94;5050524;28;46588;-79
2022/08/21 02:09:13;;;;;;;;;2.25;2.25;;;;;22.02;46.88;100993.31;5047795;28;45832;-81
2022/08/21 02:11:40;;;;;;;;;4.25;2.25;;;;;22.03;47.24;100996.78;5049800;28;45849;-81
2022/08/21 02:14:07;;;;;;;;;2.00;2.00;;;;;22.02;46.93;100989.81;5052625;28;45874;-79
2022/08/21 02:16:33;;;;;;;;;1.50;1.50;;;;;22.01;47.57;100991.66;5070924;28;46857;-80
2022/08/21 02:18:58;;;;;;;;;2.50;2.50;;;;;21.94;47.63;100971.97;5071893;28;46018;-80
2022/08/21 02:21:24;;;;;;;;;3.00;2.50;;;;;21.98;46.98;100973.28;5053248;28;45831;-80
2022/08/21 02:23:49;;;;;;;;;2.75;2.00;;;;;21.97;47.64;100981.50;5071907;28;45743;-77
2022/08/21 02:26:14;;;;;;;;;2.00;2.00;;;;;21.95;47.36;100976.31;5060711;28;47148;-79
2022/08/21 02:28:40;;;;;;;;;2.75;2.25;;;;;21.94;47.85;100973.78;5072068;28;46366;-80
2022/08/21 02:31:06;;;;;;;;;3.00;3.00;;;;;21.95;47.41;100979.00;5053075;28;45603;-80
2022/08/21 02:33:33;;;;;;;;;2.00;2.00;;;;;21.96;47.59;100985.16;5071924;28;45852;-80
2022/08/21 02:35:58;;;;;;;;;3.00;2.50;;;;;21.93;47.34;100975.63;5057586;28;46627;-81
2022/08/21 02:38:27;;;;;;;;;2.75;2.00;;;;;21.93;47.92;100986.28;5072586;28;46416;-77
2022/08/21 02:40:54;;;;;;;;;2.00;2.00;;;;;21.94;47.54;100989.78;5074562;28;46262;-80
2022/08/21 02:43:21;;;;;;;;;3.75;1.75;;;;;21.92;47.50;100981.97;5074956;28;45693;-81
2022/08/21 02:45:47;;;;;;;;;3.25;2.00;;;;;21.90;48.21;100973.31;5074302;28;45796;-80
2022/08/21 02:48:17;;;;;;;;;2.00;2.00;;;;;21.92;47.84;100976.63;5078560;27;46921;-77
2022/08/21 02:50:51;;;;;;;;;3.00;2.00;;;;;21.91;47.91;100985.66;5074730;28;45767;-75
2022/08/21 02:53:16;;;;;;;;;4.50;3.00;;;;;21.91;47.66;100987.50;5074611;28;45918;-80
2022/08/21 02:55:44;;;;;;;;;3.25;2.00;;;;;21.90;47.75;100986.66;5074521;28;46774;-79
2022/08/21 02:58:10;;;;;;;;;2.25;2.00;;;;;21.89;47.57;100989.47;5074851;28;45576;-81
2022/08/21 03:00:37;;;;;;;;;4.00;3.00;;;;;21.88;47.64;100983.31;5063846;28;45789;-79
2022/08/21 03:03:04;;;;;;;;;1.00;1.00;;;;;21.89;47.64;100986.81;5074551;28;45570;-80
2022/08/21 03:05:31;;;;;;;;;3.00;3.00;;;;;21.86;47.88;100981.84;5073975;28;46627;-80
2022/08/21 03:07:59;;;;;;;;;1.75;1.75;;;;;21.84;48.07;100978.50;5074207;28;45864;-79
2022/08/21 03:10:25;;;;;;;;;2.00;2.00;;;;;21.77;47.86;100984.53;5074065;28;45748;-81
2022/08/21 03:12:51;;;;;;;;;2.00;2.00;;;;;21.74;48.25;100976.88;5074680;28;45684;-82
2022/08/21 03:15:22;;;;;;;;;1.00;1.00;;;;;21.69;48.25;100986.41;5073615;28;46918;-79
2022/08/21 03:17:47;;;;;;;;;2.50;2.00;;;;;21.64;48.08;100978.91;5073935;28;46858;-82
2022/08/21 03:20:15;;;;;;;;;1.00;1.00;;;;;21.61;48.04;100984.56;5073930;28;45813;-78
2022/08/21 03:22:41;;;;;;;;;1.50;1.50;;;;;21.58;48.12;100987.59;5074616;28;45953;-81
2022/08/21 03:25:08;;;;;;;;;2.75;1.75;;;;;21.56;48.59;100978.09;5073333;28;45657;-78
2022/08/21 03:27:34;;;;;;;;;3.00;1.25;;;;;21.51;48.27;100973.28;5074528;28;46657;-81
2022/08/21 03:30:01;;;;;;;;;2.25;2.00;;;;;21.49;48.33;100969.94;5073745;28;46040;-80
2022/08/21 03:32:26;;;;;;;;;3.50;3.00;;;;;21.47;48.67;100969.28;5074216;28;45561;-80
2022/08/21 03:34:52;;;;;;;;;3.00;2.00;;;;;21.43;48.84;100970.63;5067396;28;46715;-77
2022/08/21 03:37:17;;;;;;;;;1.75;1.50;;;;;21.38;48.78;100962.31;5082094;27;48303;-77
2022/08/21 03:39:44;;;;;;;;;3.00;2.50;;;;;21.38;48.75;100962.31;5056214;28;46096;-81
2022/08/21 03:42:10;;;;;;;;;2.00;2.00;;;;;21.35;48.66;100944.00;5069898;28;45676;-81
2022/08/21 03:44:36;;;;;;;;;5.25;2.00;;;;;21.30;48.88;100939.19;5072730;28;46571;-81
2022/08/21 03:47:01;;;;;;;;;3.00;2.75;;;;;21.32;48.91;100936.34;5076917;27;46304;-81
2022/08/21 03:49:27;;;;;;;;;1.75;1.75;;;;;21.30;48.97;100933.84;5072505;27;45547;-79
2022/08/21 03:51:52;;;;;;;;;2.00;2.00;;;;;21.29;48.94;100934.00;5066905;28;46316;-79
2022/08/21 03:54:18;;;;;;;;;3.25;3.00;;;;;21.26;49.09;100937.84;5072639;28;46571;-82
2022/08/21 03:56:44;;;;;;;;;3.00;2.50;;;;;21.25;49.19;100935.34;5073405;28;45997;-81
2022/08/21 03:59:10;;;;;;;;;2.50;2.00;;;;;21.28;49.25;100935.84;5073848;28;45699;-80
2022/08/21 04:01:35;;;;;;;;;3.75;3.00;;;;;21.26;49.42;100932.53;5073469;28;45700;-77
2022/08/21 04:04:01;;;;;;;;;2.00;1.00;;;;;21.28;49.74;100943.00;5073133;28;47397;-81
2022/08/21 04:06:27;;;;;;;;;1.75;1.75;;;;;21.27;49.36;100941.31;5073248;28;46118;-81
2022/08/21 04:08:53;;;;;;;;;3.00;2.00;;;;;21.26;49.35;100934.34;5042398;28;45873;-81
2022/08/21 04:11:18;;;;;;;;;2.00;2.00;;;;;21.26;49.53;100934.34;5073188;28;45774;-78
2022/08/21 04:13:44;;;;;;;;;5.00;3.00;;;;;21.25;48.90;100925.53;5073478;28;46450;-78
2022/08/21 04:16:10;;;;;;;;;4.00;3.00;;;;;21.25;49.49;100930.03;5072969;28;45804;-81
2022/08/21 04:18:35;;;;;;;;;3.75;3.25;;;;;21.26;50.01;100934.34;5054941;28;45452;-80
2022/08/21 04:21:02;;;;;;;;;4.00;3.75;;;;;21.25;49.26;100938.84;5073123;28;45572;-80
2022/08/21 04:23:28;;;;;;;;;2.25;2.25;;;;;21.22;49.77;100938.34;5072882;28;46783;-81
2022/08/21 04:25:56;;;;;;;;;3.00;2.75;;;;;21.23;49.77;100948.00;5048625;28;47686;-80
2022/08/21 04:28:23;;;;;;;;;4.00;3.00;;;;;21.20;49.86;100957.19;5072827;28;45708;-79
2022/08/21 04:30:53;;;;;;;;;3.25;3.00;;;;;21.22;49.63;100967.66;5072807;28;46007;-80
2022/08/21 04:33:20;;;;;;;;;5.00;2.75;;;;;21.20;49.94;100962.53;5072687;28;45920;-80
2022/08/21 04:35:46;;;;;;;;;4.00;3.25;;;;;21.22;50.01;100970.31;5059569;28;46965;-79
2022/08/21 04:38:11;;;;;;;;;4.25;3.25;;;;;21.18;49.55;100958.34;5054799;28;45770;-79
2022/08/21 04:40:37;;;;;;;;;5.00;3.00;;;;;21.19;49.69;100973.34;5071574;28;45855;-81
2022/08/21 04:43:05;;;;;;;;;3.75;3.00;;;;;21.19;50.03;100968.84;5072137;28;46519;-82
2022/08/21 04:45:41;;;;;;;;;3.25;3.25;;;;;21.18;50.14;100972.50;5072295;28;45870;-79
2022/08/21 04:48:08;;;;;;;;;2.00;2.00;;;;;21.17;49.98;100970.00;5073291;27;45831;-81
2022/08/21 04:50:34;;;;;;;;;3.00;2.25;;;;;21.17;49.71;100968.16;5054289;28;46369;-80
2022/08/21 04:53:00;;;;;;;;;4.50;4.00;;;;;21.15;50.07;100966.69;5070610;28;46555;-80
2022/08/21 04:55:27;;;;;;;;;3.75;3.75;;;;;21.13;50.48;100969.50;5072016;28;46055;-81
2022/08/21 04:57:53;;;;;;;;;4.00;2.50;;;;;21.12;50.18;100970.47;5053612;28;45846;-80
2022/08/21 05:00:20;;;;;;;;;3.00;3.00;;;;;21.12;50.30;100974.97;5067449;28;45709;-78
2022/08/21 05:02:47;;;;;;;;;3.75;2.50;;;;;21.11;49.86;100976.81;5071926;28;46568;-78
2022/08/21 05:05:13;;;;;;;;;4.25;3.00;;;;;21.10;50.09;100974.34;5072161;28;46260;-80
2022/08/21 05:07:38;;;;;;;;;3.25;3.00;;;;;21.09;50.32;100978.00;5072712;28;45640;-81
2022/08/21 05:10:07;;;;;;;;;1.75;1.75;;;;;21.07;50.19;100971.97;5072116;28;46356;-80
2022/08/21 05:12:34;;;;;;;;;3.25;2.50;;;;;21.06;50.08;100976.47;5054471;28;47438;-80
2022/08/21 05:14:59;;;;;;;;;4.00;2.50;;;;;21.05;50.20;100972.19;5071384;28;46172;-80
2022/08/21 05:17:25;;;;;;;;;3.75;3.25;;;;;21.00;50.26;100969.16;5072212;28;45752;-81
2022/08/21 05:19:50;;;;;;;;;3.50;3.50;;;;;21.01;50.26;100965.50;5072014;28;45743;-81
2022/08/21 05:22:24;;;;;;;;;3.00;3.00;;;;;20.99;50.29;100969.34;5072434;28;46618;-81
2022/08/21 05:24:50;;;;;;;;;3.75;3.50;;;;;20.97;50.35;100968.66;5071876;28;46122;-81
2022/08/21 05:27:16;;;;;;;;;2.75;2.75;;;;;20.95;50.32;100968.81;5072362;28;45811;-80
2022/08/21 05:29:41;;;;;;;;;5.25;4.25;;;;;20.93;50.53;100966.34;5054116;28;45893;-80
2022/08/21 05:32:12;;;;;;;;;4.50;3.50;;;;;20.94;50.55;100972.50;5052605;28;47718;-80
2022/08/21 05:34:38;;;;;;;;;6.50;2.75;;;;;20.94;50.59;100973.31;5071876;28;45989;-81
2022/08/21 05:37:03;;;;;;;;;4.00;2.50;;;;;20.91;50.48;100968.34;5072415;28;46030;-81
2022/08/21 05:39:29;;;;;;;;;3.00;3.00;;;;;20.95;50.31;100967.00;5071778;28;45604;-80
2022/08/21 05:41:54;;;;;;;;;4.75;3.00;;;;;20.91;50.69;100957.69;5072073;28;46937;-80
2022/08/21 05:44:20;;;;;;;;;4.50;4.50;;;;;20.95;50.15;100966.16;5071782;28;46115;-79
2022/08/21 05:46:45;;;;;;;;;4.50;4.50;;;;;20.96;50.56;100970.50;5054726;27;45657;-80
2022/08/21 05:49:11;;;;;;;;;5.50;4.25;;;;;20.94;50.34;100970.66;5074106;27;45698;-78
2022/08/21 05:51:36;;;;;;;;;5.50;4.00;;;;;20.90;50.50;100960.50;5071686;28;46742;-79
2022/08/21 05:54:02;;;;;;;;;3.50;3.25;;;;;20.97;50.52;100976.66;5053137;28;47235;-79
2022/08/21 05:56:28;;;;;;;;;6.25;4.50;;;;;20.95;50.89;100974.16;5071711;28;46043;-80
2022/08/21 05:58:54;;;;;;;;;5.75;4.00;;;;;20.95;50.75;100967.00;5072015;28;45705;-78
2022/08/21 06:01:19;;;;;;;;;3.00;3.00;;;;;20.95;50.80;100974.16;5071153;28;45538;-78
2022/08/21 06:03:45;;;;;;;;;4.00;3.75;;;;;20.98;50.87;100981.00;5053359;28;47238;-79
2022/08/21 06:06:10;;;;;;;;;4.75;4.00;;;;;20.95;50.73;100974.16;5068389;28;45693;-79
2022/08/21 06:08:36;;;;;;;;;5.50;3.75;;;;;20.97;50.69;100972.16;5068064;28;45974;-81
2022/08/21 06:11:03;;;;;;;;;3.25;3.00;;;;;21.00;51.02;100979.00;5071155;28;45897;-80
2022/08/21 06:13:29;;;;;;;;;5.50;4.50;;;;;20.99;50.73;100975.50;5072421;28;45623;-80
2022/08/21 06:16:03;;;;;;;;;4.25;3.50;;;;;21.00;50.68;100984.34;5049466;28;45984;-79
2022/08/21 06:18:28;;;;;;;;;4.75;4.75;;;;;21.03;50.66;100984.81;5051425;28;45960;-80
2022/08/21 06:20:54;;;;;;;;;4.00;3.75;;;;;21.04;50.73;100986.50;5054534;28;46244;-80
2022/08/21 06:23:19;;;;;;;;;5.00;3.00;;;;;21.07;50.99;100986.13;5053804;28;45982;-81
2022/08/21 06:25:45;;;;;;;;;5.00;4.00;;;;;21.11;50.58;100978.63;5054201;28;45710;-80
2022/08/21 06:28:10;;;;;;;;;4.25;4.25;;;;;21.10;50.42;100977.00;5054889;28;45681;-79
2022/08/21 06:30:38;;;;;;;;;8.25;7.00;;;;;21.15;50.45;100972.84;5054392;28;46465;-78
2022/08/21 06:33:04;;;;;;;;;8.25;5.00;;;;;21.17;50.83;100978.84;5054546;28;46191;-78
2022/08/21 06:35:29;;;;;;;;;4.25;4.00;;;;;21.18;50.26;100969.84;5043252;28;45801;-80
2022/08/21 06:37:58;;;;;;;;;5.25;5.00;;;;;21.20;50.54;100969.69;5052395;28;45923;-80
2022/08/21 06:40:25;;;;;;;;;5.50;4.75;;;;;21.24;50.25;100973.66;5049002;28;45621;-81
2022/08/21 06:42:51;;;;;;;;;3.50;2.75;;;;;21.28;50.48;100961.66;5052644;28;46316;-81
2022/08/21 06:45:16;;;;;;;;;5.00;4.25;;;;;21.25;50.63;100952.19;5054302;28;45597;-80
2022/08/21 06:47:42;;;;;;;;;5.00;4.00;;;;;21.32;50.41;100950.47;5055181;28;45621;-81
2022/08/21 06:50:09;;;;;;;;;3.00;3.00;;;;;21.36;50.66;100948.31;5054198;28;45668;-81
2022/08/21 06:52:37;;;;;;;;;6.00;4.75;;;;;21.40;50.18;100940.81;5051671;28;45969;-80
2022/08/21 06:55:06;;;;;;;;;6.75;5.00;;;;;21.42;50.05;100952.97;5054088;28;45689;-82
2022/08/21 06:57:32;;;;;;;;;4.75;4.00;;;;;21.43;50.50;100946.63;5053307;28;45897;-80
2022/08/21 06:59:57;;;;;;;;;6.00;5.00;;;;;21.45;50.55;100949.13;5053703;28;45909;-81
2022/08/21 07:02:23;;;;;;;;;4.00;4.00;;;;;21.45;50.76;100947.28;5053934;28;46324;-80
2022/08/21 07:04:48;;;;;;;;;4.50;4.00;;;;;21.49;50.48;100950.44;5054298;28;45825;-81
2022/08/21 07:07:13;;;;;;;;;22.50;18.00;;;;;21.48;49.96;100940.81;5055002;28;45891;-79
2022/08/21 07:09:39;;;;;;;;;7.25;6.50;;;;;21.51;50.53;100946.63;5053899;28;45644;-80
2022/08/21 07:12:05;;;;;;;;;5.00;5.00;;;;;21.55;50.08;100950.59;5054281;28;45757;-80
2022/08/21 07:14:30;;;;;;;;;6.50;5.50;;;;;21.55;50.03;100953.25;5046032;28;46036;-81
2022/08/21 07:16:55;;;;;;;;;4.50;4.50;;;;;21.57;50.46;100945.09;5052932;28;45653;-80
2022/08/21 07:19:21;;;;;;;;;7.50;6.75;;;;;21.55;49.81;100944.41;5060943;28;47490;-81
2022/08/21 07:21:47;;;;;;;;;4.00;4.00;;;;;21.58;49.90;100946.75;5052815;28;47935;-80
2022/08/21 07:24:14;;;;;;;;;5.50;5.00;;;;;21.61;49.88;100951.75;5053638;28;45662;-81
2022/08/21 07:26:40;;;;;;;;;6.00;4.50;;;;;21.63;49.97;100955.91;5055985;28;45695;-80
2022/08/21 07:29:05;;;;;;;;;5.00;4.00;;;;;21.66;49.44;100952.06;5054012;28;47705;-79
2022/08/21 07:31:31;;;;;;;;;4.50;3.25;;;;;21.70;49.51;100951.53;5052045;28;45783;-80
2022/08/21 07:33:57;;;;;;;;;5.50;3.25;;;;;21.74;49.67;100955.53;5052567;28;45532;-80
2022/08/21 07:36:23;;;;;;;;;4.50;4.25;;;;;21.78;49.64;100940.00;5039638;28;45504;-79
2022/08/21 07:38:48;;;;;;;;;5.75;4.50;;;;;21.85;49.42;100948.16;5052207;28;48528;-79
2022/08/21 07:41:17;;;;;;;;;5.75;4.50;;;;;21.90;49.32;100946.63;5051438;28;48015;-80
2022/08/21 07:43:43;;;;;;;;;6.75;4.75;;;;;21.95;49.20;100938.97;5053757;28;45658;-80
2022/08/21 07:46:08;;;;;;;;;3.25;3.00;;;;;22.01;49.18;100938.28;5053514;28;45565;-78
2022/08/21 07:48:34;;;;;;;;;6.25;5.25;;;;;22.04;48.98;100932.56;5050276;28;45760;-80
2022/08/21 07:51:05;;;;;;;;;5.00;5.00;;;;;22.12;49.26;100942.38;5067358;28;46242;-78
2022/08/21 07:53:30;;;;;;;;;5.00;4.50;;;;;22.16;49.37;100943.69;5053488;28;45700;-80
2022/08/21 07:55:58;;;;;;;;;6.75;6.25;;;;;22.25;49.00;100952.47;5052937;28;46035;-79
2022/08/21 07:58:24;;;;;;;;;7.00;4.75;;;;;22.30;49.36;100944.75;5068948;28;47899;-77
2022/08/21 08:00:49;;;;;;;;;51.75;40.75;;;;;22.35;48.94;100948.56;5051448;28;45797;-79
2022/08/21 08:03:15;;;;;;;;;6.25;4.75;;;;;22.43;48.71;100940.50;5053438;28;45597;-80
2022/08/21 08:05:40;;;;;;;;;5.00;4.00;;;;;22.49;48.19;100931.78;5049760;28;45685;-79
2022/08/21 08:08:05;;;;;;;;;6.50;5.00;;;;;22.55;48.80;100933.75;5053399;28;45680;-81
2022/08/21 08:10:31;;;;;;;;;8.00;6.00;;;;;22.63;48.66;100940.84;5052145;28;46269;-79
2022/08/21 08:12:57;;;;;;;;;4.25;3.75;;;;;22.71;48.48;100943.50;5052814;28;45630;-77
2022/08/21 08:15:25;;;;;;;;;3.25;2.50;;;;;22.79;48.35;100935.41;5064179;28;46002;-78
2022/08/21 08:17:51;;;;;;;;;5.50;4.00;;;;;22.86;47.73;100939.03;5072967;28;45756;-79
2022/08/21 08:20:18;;;;;;;;;5.00;4.25;;;;;22.89;48.13;100927.13;5072713;28;45841;-79
2022/08/21 08:22:43;;;;;;;;;5.00;5.00;;;;;22.97;47.39;100933.25;5046929;28;45708;-78
2022/08/21 08:25:11;;;;;;;;;5.50;4.50;;;;;23.07;47.37;100927.63;5083399;27;45857;-81
2022/08/21 08:27:37;;;;;;;;;6.00;5.00;;;;;23.11;47.49;100934.25;5065638;28;46503;-79
2022/08/21 08:30:03;;;;;;;;;6.00;4.00;;;;;23.16;47.24;100923.84;5072772;28;46790;-79
2022/08/21 08:32:28;;;;;;;;;4.00;4.00;;;;;23.23;47.17;100914.09;5073096;28;45640;-79
2022/08/21 08:34:54;;;;;;;;;4.25;3.25;;;;;23.30;47.19;100920.38;5066653;28;45864;-80
2022/08/21 08:37:21;;;;;;;;;4.25;4.25;;;;;23.36;46.76;100930.34;5064578;28;47548;-81
2022/08/21 08:39:46;;;;;;;;;5.25;4.00;;;;;23.39;47.01;100927.28;5069817;28;46173;-78
2022/08/21 08:42:25;;;;;;;;;6.25;5.00;;;;;23.44;46.36;100922.22;5071921;28;45998;-79
2022/08/21 08:44:59;;;;;;;;;5.75;4.75;;;;;23.52;46.71;100925.84;5072696;28;45928;-81
2022/08/21 08:47:27;;;;;;;;;4.25;4.00;;;;;23.56;46.40;100916.44;5072782;27;46444;-79
2022/08/21 08:50:10;;;;;;;;;4.50;4.00;;;;;23.65;46.21;100923.31;5072443;28;47439;-80
2022/08/21 08:52:43;;;;;;;;;5.50;4.25;;;;;23.72;45.69;100926.94;5070455;28;45620;-80
2022/08/21 08:55:17;;;;;;;;;4.25;4.25;;;;;23.76;45.70;100915.66;5072634;28;45829;-80
2022/08/21 08:57:46;;;;;;;;;3.75;3.75;;;;;23.81;45.45;100913.25;5068456;28;47096;-78
2022/08/21 09:00:15;;;;;;;;;8.00;6.50;;;;;23.87;45.94;100914.34;5072499;28;45984;-80
2022/08/21 09:02:45;;;;;;;;;5.00;4.25;;;;;23.93;45.29;100907.41;5068161;28;45807;-80
2022/08/21 09:05:26;;;;;;;;;4.75;4.75;;;;;24.00;46.13;100908.31;5068076;28;45609;-79
2022/08/21 09:08:09;;;;;;;;;5.00;5.00;;;;;24.05;45.26;100904.06;5072610;28;46366;-80
2022/08/21 09:10:35;;;;;;;;;5.00;4.25;;;;;24.10;45.67;100912.34;5072146;28;46233;-81
2022/08/21 09:13:14;;;;;;;;;5.00;5.00;;;;;24.13;45.56;100903.13;5072014;28;45724;-80
2022/08/21 09:15:39;;;;;;;;;6.00;4.75;;;;;24.21;44.89;100903.03;5062293;28;45716;-78
2022/08/21 09:18:35;;;;;;;;;5.50;5.00;;;;;24.27;44.58;100899.59;5072943;28;45754;-79
2022/08/21 09:21:42;;;;;;;;;8.00;6.00;;;;;24.30;45.17;100891.16;5072196;28;45715;-80
2022/08/21 09:24:31;;;;;;;;;4.75;4.00;;;;;24.35;44.70;100885.22;5064582;28;46330;-78
2022/08/21 09:27:08;;;;;;;;;4.00;4.00;;;;;24.39;44.80;100883.84;5072542;28;46364;-80
2022/08/21 09:29:36;;;;;;;;;4.25;4.00;;;;;24.39;44.48;100882.00;5072175;28;46465;-80
2022/08/21 09:32:09;;;;;;;;;4.00;4.00;;;;;24.40;44.48;100880.16;5062803;28;45797;-79
2022/08/21 09:34:35;;;;;;;;;6.00;5.00;;;;;24.43;44.84;100882.44;5068929;28;45739;-79
2022/08/21 09:37:00;;;;;;;;;8.00;8.00;;;;;24.46;44.19;100890.91;5062282;28;45621;-79
2022/08/21 09:39:29;;;;;;;;;5.00;5.00;;;;;24.47;43.59;100891.72;5071683;28;46568;-80
2022/08/21 09:42:06;;;;;;;;;7.00;5.50;;;;;24.49;43.55;100890.53;5072262;28;47321;-80
2022/08/21 09:44:40;;;;;;;;;7.25;6.25;;;;;24.51;44.26;100893.00;5071787;28;45701;-79
2022/08/21 09:47:07;;;;;;;;;6.25;4.50;;;;;24.55;43.42;100895.13;5072537;27;45699;-79
2022/08/21 09:49:36;;;;;;;;;6.25;5.00;;;;;24.58;43.47;100897.41;5075871;27;46164;-79
2022/08/21 09:52:06;;;;;;;;;4.00;3.00;;;;;24.64;43.18;100903.84;5055043;28;47060;-80
2022/08/21 09:54:40;;;;;;;;;5.25;3.25;;;;;24.69;43.29;100898.72;5062379;28;45727;-81
2022/08/21 09:59:52;;;;;;;;;3.50;3.50;;;;;24.80;42.86;100884.78;5075248;28;46208;-80
2022/08/21 10:02:33;;;;;;;;;3.25;3.00;;;;;24.87;42.68;100872.28;5075426;28;46395;-81
2022/08/21 10:05:22;;;;;;;;;5.00;5.00;;;;;24.97;42.78;100874.63;5064774;28;45938;-80
2022/08/21 10:07:48;;;;;;;;;4.00;4.00;;;;;25.05;42.49;100861.91;5065937;28;45903;-79
2022/08/21 10:10:25;;;;;;;;;5.00;5.00;;;;;25.15;42.61;100863.41;5074865;28;45825;-78
2022/08/21 10:13:16;;;;;;;;;4.00;4.00;;;;;25.19;42.32;100867.34;5075570;28;45984;-81
2022/08/21 10:15:53;;;;;;;;;4.50;4.00;;;;;25.25;42.16;100851.31;5063505;28;45704;-81
2022/08/21 10:18:27;;;;;;;;;5.00;3.00;;;;;25.31;41.79;100855.03;5075480;28;45804;-80
2022/08/21 10:21:07;;;;;;;;;4.00;3.75;;;;;25.33;41.84;100855.66;5055978;28;46724;-78
2022/08/21 10:23:39;;;;;;;;;5.75;4.00;;;;;25.35;41.69;100853.59;5075117;28;46174;-80
2022/08/21 10:26:22;;;;;;;;;3.00;3.00;;;;;25.37;41.57;100843.53;5074940;28;45530;-80
2022/08/21 10:29:12;;;;;;;;;4.00;4.00;;;;;25.38;41.68;100829.06;5065368;28;45697;-80
2022/08/21 10:31:47;;;;;;;;;5.75;4.00;;;;;25.41;41.90;100825.97;5075174;28;46522;-79
2022/08/21 10:34:40;;;;;;;;;5.50;5.00;;;;;25.46;41.86;100823.53;5074592;28;46734;-80
2022/08/21 10:37:32;;;;;;;;;6.00;6.00;;;;;25.49;41.68;100832.00;5065713;28;45742;-75
2022/08/21 10:40:15;;;;;;;;;6.00;4.25;;;;;25.56;41.72;100832.06;5063433;28;45978;-79
2022/08/21 10:43:03;;;;;;;;;4.25;3.50;;;;;25.61;41.22;100828.75;5074765;28;46243;-77
2022/08/21 10:45:47;;;;;;;;;3.75;3.75;;;;;25.68;41.19;100818.88;5075204;28;45676;-78
2022/08/21 10:48:20;;;;;;;;;3.75;3.00;;;;;25.74;41.18;100818.06;5075767;27;46200;-79
2022/08/21 10:50:50;;;;;;;;;5.25;4.25;;;;;25.81;41.07;100811.69;5074779;28;45676;-76
2022/08/21 10:53:28;;;;;;;;;4.25;3.75;;;;;25.90;41.09;100804.28;5074437;28;45712;-74
2022/08/21 10:56:10;;;;;;;;;3.25;3.25;;;;;26.00;40.77;100814.63;5068459;28;48313;-77
2022/08/21 10:59:04;;;;;;;;;5.00;3.75;;;;;26.09;40.63;100811.53;5074462;28;45683;-76
2022/08/21 11:01:52;;;;;;;;;5.50;4.00;;;;;26.18;40.50;100815.66;5074808;28;45691;-78
2022/08/21 11:04:24;;;;;;;;;4.25;3.50;;;;;26.26;40.07;100811.97;5061363;28;46715;-78
2022/08/21 11:06:59;;;;;;;;;5.50;3.75;;;;;26.30;40.39;100807.84;5074384;28;45754;-76
2022/08/21 11:09:26;;;;;;;;;4.00;4.00;;;;;26.37;40.47;100803.31;5074332;28;45845;-75
2022/08/21 11:11:55;;;;;;;;;5.00;3.50;;;;;26.44;40.13;100812.19;5054225;28;45678;-80
2022/08/21 11:14:30;;;;;;;;;4.25;4.00;;;;;26.50;39.89;100826.66;5044996;28;48626;-79
2022/08/21 11:17:11;;;;;;;;;4.00;4.00;;;;;26.52;39.92;100817.34;5074066;28;46446;-77
2022/08/21 11:19:40;;;;;;;;;5.00;4.00;;;;;26.56;40.03;100820.47;5055896;28;45690;-76
2022/08/21 11:22:14;;;;;;;;;4.25;4.00;;;;;26.57;39.59;100824.78;5061119;28;46003;-76
2022/08/21 11:25:17;;;;;;;;;3.25;3.25;;;;;26.61;39.69;100829.53;5073901;28;45967;-78
2022/08/21 11:28:24;;;;;;;;;4.00;4.00;;;;;26.63;39.83;100837.38;5074552;28;45816;-80
2022/08/21 11:31:02;;;;;;;;;7.50;4.25;;;;;26.69;39.78;100833.88;5011062;28;45797;-80
2022/08/21 11:34:08;;;;;;;;;5.00;4.25;;;;;26.74;39.67;100836.75;4995062;28;46145;-79
2022/08/21 11:36:45;;;;;;;;;4.50;3.25;;;;;26.81;40.01;100831.38;4933553;28;46529;-81